Time;durP1;ratioP1;P1;durP2;ratioP2;P2;SDS_P1;SDS_P2;PMS_P1;PMS_P2;Temp;Humidity;BMP_temperature;BMP_pressure;BME280_temperature;BME280_humidity;BME280_pressure;Samples;Min_cycle;Max_cycle;Signal;HPM_P1;HPM_P2
2022/10/27 00:01:56;;;;;;;18.40;6.68;;;11.60;99.90;;;;;;5060426;28;20048;-80
2022/10/27 00:04:22;;;;;;;18.25;6.82;;;11.70;99.90;;;;;;5044936;28;20131;-80
2022/10/27 00:06:48;;;;;;;17.85;6.40;;;11.60;99.90;;;;;;5045239;28;20052;-79
2022/10/27 00:09:14;;;;;;;17.17;6.28;;;11.60;99.90;;;;;;5044825;28;20087;-82
2022/10/27 00:11:39;;;;;;;20.88;6.55;;;11.60;99.90;;;;;;5049129;28;20127;-81
2022/10/27 00:14:05;;;;;;;19.60;6.47;;;11.60;99.90;;;;;;5030518;28;20044;-81
2022/10/27 00:16:31;;;;;;;15.27;5.82;;;11.60;99.90;;;;;;5044361;28;20415;-77
2022/10/27 00:18:57;;;;;;;17.40;6.38;;;11.50;99.90;;;;;;5063270;28;20051;-84
2022/10/27 00:21:23;;;;;;;13.00;5.95;;;11.50;99.90;;;;;;5047475;28;20075;-82
2022/10/27 00:23:50;;;;;;;19.05;5.70;;;11.50;99.90;;;;;;5062647;28;20434;-79
2022/10/27 00:26:17;;;;;;;13.20;5.32;;;11.50;99.90;;;;;;5076384;28;22030;-82
2022/10/27 00:28:43;;;;;;;27.23;5.93;;;11.50;99.90;;;;;;5062942;28;20041;-78
2022/10/27 00:31:17;;;;;;;17.02;5.32;;;11.40;99.90;;;;;;5030684;28;20414;-81
2022/10/27 00:33:46;;;;;;;15.23;4.97;;;11.40;99.90;;;;;;5044696;28;20060;-79
2022/10/27 00:36:25;;;;;;;20.58;5.50;;;11.30;99.90;;;;;;5028666;28;20064;-80
2022/10/27 00:38:55;;;;;;;19.95;5.55;;;11.30;99.90;;;;;;5046912;28;20071;-79
2022/10/27 00:41:24;;;;;;;18.10;5.05;;;11.30;99.90;;;;;;5046040;28;20044;-79
2022/10/27 00:43:50;;;;;;;12.60;5.32;;;11.30;99.90;;;;;;5033580;28;20080;-80
2022/10/27 00:46:44;;;;;;;15.30;4.97;;;11.30;99.90;;;;;;5050917;28;20053;-80
2022/10/27 00:49:12;;;;;;;21.42;5.75;;;11.30;99.90;;;;;;5051957;28;20056;-77
2022/10/27 00:51:49;;;;;;;15.35;5.90;;;11.40;99.90;;;;;;5067482;28;20480;-80
2022/10/27 00:54:17;;;;;;;22.10;6.47;;;11.40;99.90;;;;;;5024636;28;20122;-79
2022/10/27 00:56:46;;;;;;;23.85;6.68;;;11.30;99.90;;;;;;5042982;28;20127;-80
2022/10/27 00:59:13;;;;;;;18.15;6.40;;;11.40;99.90;;;;;;5060265;28;20036;-82
2022/10/27 01:01:40;;;;;;;25.45;7.65;;;11.40;99.90;;;;;;5046286;28;20035;-79
2022/10/27 01:04:07;;;;;;;19.02;6.45;;;11.50;99.90;;;;;;5026666;28;20049;-78
2022/10/27 01:06:34;;;;;;;25.27;7.07;;;11.60;99.90;;;;;;5046822;28;20043;-79
2022/10/27 01:09:01;;;;;;;23.95;7.40;;;11.50;99.90;;;;;;5026708;28;20480;-77
2022/10/27 01:11:26;;;;;;;21.80;7.93;;;11.50;99.90;;;;;;5026292;28;20041;-80
2022/10/27 01:13:52;;;;;;;23.85;7.35;;;11.50;99.90;;;;;;5044424;28;20047;-81
2022/10/27 01:16:36;;;;;;;26.20;7.90;;;11.60;99.90;;;;;;5028916;28;20519;-79
2022/10/27 01:19:39;;;;;;;25.50;8.13;;;11.60;99.90;;;;;;5026804;28;20126;-80
2022/10/27 01:22:10;;;;;;;26.50;8.50;;;11.70;99.90;;;;;;5044514;28;20341;-79
2022/10/27 01:24:41;;;;;;;21.35;7.93;;;11.60;99.90;;;;;;5061226;28;20059;-82
2022/10/27 01:27:37;;;;;;;16.88;7.10;;;11.60;99.90;;;;;;5076122;28;20041;-80
2022/10/27 01:30:12;;;;;;;18.85;8.00;;;11.60;99.90;;;;;;5029032;28;20037;-79
2022/10/27 01:33:05;;;;;;;17.05;8.07;;;11.70;99.90;;;;;;5026593;28;20078;-78
2022/10/27 01:35:52;;;;;;;16.13;7.93;;;11.60;99.90;;;;;;5045508;28;20492;-79
2022/10/27 01:38:44;;;;;;;28.70;9.38;;;11.70;99.90;;;;;;5024889;28;20393;-79
2022/10/27 01:41:25;;;;;;;22.45;8.70;;;11.80;99.90;;;;;;5027013;28;20059;-79
2022/10/27 01:43:56;;;;;;;16.92;7.20;;;11.50;99.90;;;;;;5043894;28;20053;-79
2022/10/27 01:46:22;;;;;;;31.75;9.07;;;11.60;99.90;;;;;;5043112;28;20477;-80
2022/10/27 01:48:48;;;;;;;21.25;9.07;;;11.70;99.90;;;;;;5044754;28;20072;-77
2022/10/27 01:51:14;;;;;;;19.35;8.80;;;11.70;99.90;;;;;;5044316;28;20106;-81
2022/10/27 01:53:43;;;;;;;34.17;9.57;;;11.80;99.90;;;;;;5056798;28;20053;-79
2022/10/27 01:56:24;;;;;;;29.27;9.25;;;11.90;99.90;;;;;;5019032;28;20057;-80
2022/10/27 01:59:11;;;;;;;24.83;9.27;;;11.80;99.90;;;;;;5023008;28;20041;-80
2022/10/27 02:02:06;;;;;;;24.35;9.48;;;11.90;99.90;;;;;;5023169;28;20548;-81
2022/10/27 02:04:54;;;;;;;26.33;9.73;;;11.90;99.90;;;;;;5043091;28;20086;-80
2022/10/27 02:07:50;;;;;;;18.98;9.40;;;11.90;99.90;;;;;;5043669;28;20040;-80
2022/10/27 02:10:25;;;;;;;21.63;9.45;;;11.80;99.90;;;;;;5045483;28;20534;-82
2022/10/27 02:12:52;;;;;;;19.50;9.80;;;11.80;99.90;;;;;;5042995;28;20067;-80
2022/10/27 02:15:37;;;;;;;25.42;10.32;;;11.80;99.90;;;;;;5050106;28;20055;-81
2022/10/27 02:18:18;;;;;;;29.35;10.80;;;11.80;99.90;;;;;;5050008;28;20069;-78
2022/10/27 02:20:52;;;;;;;26.65;10.95;;;11.80;99.90;;;;;;5052631;28;20053;-80
2022/10/27 02:23:20;;;;;;;23.37;9.83;;;11.80;99.90;;;;;;5063262;28;20055;-82
2022/10/27 02:25:56;;;;;;;26.02;10.52;;;11.70;99.90;;;;;;5027577;28;20033;-80
2022/10/27 02:28:28;;;;;;;25.48;10.07;;;11.70;99.90;;;;;;5024920;28;20039;-80
2022/10/27 02:30:58;;;;;;;27.45;11.13;;;11.60;99.90;;;;;;5045481;28;20048;-80
2022/10/27 02:33:24;;;;;;;23.83;11.07;;;11.70;99.90;;;;;;5076636;28;20044;-82
2022/10/27 02:35:51;;;;;;;22.10;10.80;;;11.60;99.90;;;;;;5078180;28;20100;-80
2022/10/27 02:38:17;;;;;;;28.40;10.30;;;11.60;99.90;;;;;;5043698;28;20555;-78
2022/10/27 02:40:43;;;;;;;26.88;12.15;;;11.70;99.90;;;;;;5042933;28;20124;-80
2022/10/27 02:43:10;;;;;;;23.45;11.38;;;11.80;99.90;;;;;;5043624;28;20133;-78
2022/10/27 02:45:35;;;;;;;25.73;12.40;;;11.70;99.90;;;;;;5076323;28;20060;-82
2022/10/27 02:48:01;;;;;;;28.55;12.25;;;11.70;99.90;;;;;;5044806;28;20029;-78
2022/10/27 02:50:27;;;;;;;30.33;12.43;;;11.70;99.90;;;;;;5041741;28;20495;-80
2022/10/27 02:52:52;;;;;;;35.20;12.80;;;11.70;99.90;;;;;;5076489;28;20041;-79
2022/10/27 02:55:18;;;;;;;28.42;13.60;;;11.70;99.90;;;;;;5065245;28;20049;-79
2022/10/27 02:57:45;;;;;;;27.25;12.77;;;11.70;99.90;;;;;;5078074;28;20139;-79
2022/10/27 03:00:11;;;;;;;30.67;13.30;;;11.80;99.90;;;;;;5031790;28;20047;-81
2022/10/27 03:02:37;;;;;;;27.38;12.80;;;11.80;99.90;;;;;;5046376;28;20051;-79
2022/10/27 03:05:02;;;;;;;32.08;14.27;;;11.80;99.90;;;;;;5043353;28;20049;-81
2022/10/27 03:07:28;;;;;;;31.33;13.95;;;11.70;99.90;;;;;;5059162;28;20037;-79
2022/10/27 03:09:54;;;;;;;29.85;12.75;;;11.80;99.90;;;;;;5024593;28;20146;-81
2022/10/27 03:12:19;;;;;;;29.90;13.82;;;11.80;99.90;;;;;;5059206;28;20044;-79
2022/10/27 03:14:45;;;;;;;25.17;13.35;;;11.80;99.90;;;;;;5025510;28;20072;-78
2022/10/27 03:17:11;;;;;;;29.52;13.88;;;11.80;99.90;;;;;;5060331;28;20037;-82
2022/10/27 03:19:36;;;;;;;24.50;12.43;;;11.80;99.90;;;;;;5046972;28;20107;-78
2022/10/27 03:22:02;;;;;;;34.22;13.32;;;11.80;99.90;;;;;;5030743;28;20037;-81
2022/10/27 03:24:28;;;;;;;27.27;12.38;;;11.80;99.90;;;;;;5062682;28;20045;-79
2022/10/27 03:26:53;;;;;;;30.65;13.07;;;11.80;99.90;;;;;;5062509;28;20090;-83
2022/10/27 03:29:19;;;;;;;31.67;13.32;;;11.90;99.90;;;;;;5047629;28;20029;-82
2022/10/27 03:31:45;;;;;;;33.53;13.07;;;11.80;99.90;;;;;;5050009;28;20416;-78
2022/10/27 03:34:10;;;;;;;30.75;12.63;;;11.90;99.90;;;;;;5047928;28;20414;-79
2022/10/27 03:36:36;;;;;;;24.02;11.48;;;11.90;99.90;;;;;;5030530;28;20459;-78
2022/10/27 03:39:02;;;;;;;32.53;13.20;;;11.80;99.90;;;;;;5028445;28;20400;-80
2022/10/27 03:41:28;;;;;;;25.83;12.70;;;11.90;99.90;;;;;;5045092;28;20052;-77
2022/10/27 03:43:53;;;;;;;32.10;12.55;;;12.00;99.90;;;;;;5030895;28;20361;-80
2022/10/27 03:46:19;;;;;;;27.60;12.68;;;11.90;99.90;;;;;;5052193;28;20049;-83
2022/10/27 03:48:45;;;;;;;32.80;12.77;;;11.90;99.90;;;;;;5069268;28;20032;-79
2022/10/27 03:51:10;;;;;;;29.25;13.32;;;12.00;99.90;;;;;;5072190;28;20539;-80
2022/10/27 03:53:36;;;;;;;27.15;12.68;;;12.00;99.90;;;;;;5045258;28;20060;-79
2022/10/27 03:56:02;;;;;;;24.88;13.10;;;12.10;99.90;;;;;;5051563;28;20072;-81
2022/10/27 03:58:28;;;;;;;32.17;13.32;;;12.00;99.90;;;;;;5052734;28;20033;-80
2022/10/27 04:00:53;;;;;;;36.13;13.57;;;12.10;99.90;;;;;;5044254;28;20134;-80
2022/10/27 04:03:19;;;;;;;33.08;14.15;;;12.10;99.90;;;;;;5027864;28;20075;-80
2022/10/27 04:05:49;;;;;;;32.78;12.70;;;12.00;99.90;;;;;;5062346;28;20029;-79
2022/10/27 04:08:15;;;;;;;28.80;13.13;;;12.00;99.90;;;;;;5041992;28;20045;-80
2022/10/27 04:10:40;;;;;;;28.17;12.20;;;12.00;99.90;;;;;;5028778;28;20052;-81
2022/10/27 04:13:06;;;;;;;26.15;13.18;;;12.00;99.90;;;;;;5044179;28;20125;-81
2022/10/27 04:15:31;;;;;;;25.20;11.52;;;12.00;99.90;;;;;;5026559;28;20397;-79
2022/10/27 04:17:58;;;;;;;27.80;11.77;;;11.90;99.90;;;;;;5030244;28;20140;-84
2022/10/27 04:20:25;;;;;;;29.77;13.13;;;11.90;99.90;;;;;;5047629;28;20036;-80
2022/10/27 04:22:53;;;;;;;28.52;12.50;;;11.80;99.90;;;;;;5047467;28;20037;-83
2022/10/27 04:25:19;;;;;;;22.98;13.25;;;11.80;99.90;;;;;;5049011;28;20152;-81
2022/10/27 04:27:44;;;;;;;26.65;12.90;;;11.70;99.90;;;;;;5050145;28;20119;-81
2022/10/27 04:30:10;;;;;;;26.60;12.35;;;11.70;99.90;;;;;;5046129;28;20495;-80
2022/10/27 04:32:37;;;;;;;22.17;11.55;;;11.70;99.90;;;;;;5046064;28;20044;-79
2022/10/27 04:35:03;;;;;;;30.33;12.35;;;11.60;99.90;;;;;;5032316;28;20055;-82
2022/10/27 04:37:28;;;;;;;28.20;12.43;;;11.60;99.90;;;;;;5036232;28;20080;-81
2022/10/27 04:39:54;;;;;;;27.08;13.38;;;11.60;99.90;;;;;;5043618;28;20111;-82
2022/10/27 04:42:20;;;;;;;31.00;13.95;;;11.60;99.90;;;;;;5044026;28;20087;-81
2022/10/27 04:44:46;;;;;;;28.40;14.55;;;11.60;99.90;;;;;;5045846;28;20177;-79
2022/10/27 04:47:12;;;;;;;30.02;14.60;;;11.60;99.90;;;;;;5026817;28;20099;-80
2022/10/27 04:49:37;;;;;;;33.17;15.32;;;11.70;99.90;;;;;;5058673;28;20068;-80
2022/10/27 04:52:03;;;;;;;32.33;15.38;;;11.60;99.90;;;;;;5044622;28;20102;-79
2022/10/27 04:54:29;;;;;;;32.22;15.13;;;11.60;99.90;;;;;;5042517;28;20407;-80
2022/10/27 04:56:54;;;;;;;35.08;16.48;;;11.70;99.90;;;;;;5044950;28;20044;-80
2022/10/27 04:59:20;;;;;;;35.05;15.75;;;11.70;99.90;;;;;;5045894;28;20143;-81
2022/10/27 05:01:45;;;;;;;35.03;16.15;;;11.60;99.90;;;;;;5045445;28;20047;-80
2022/10/27 05:04:11;;;;;;;34.65;15.50;;;11.80;99.90;;;;;;5042278;28;20053;-79
2022/10/27 05:06:37;;;;;;;29.77;15.77;;;11.60;99.90;;;;;;5060285;28;20095;-81
2022/10/27 05:09:02;;;;;;;32.17;15.80;;;11.60;99.90;;;;;;5027151;28;20041;-81
2022/10/27 05:11:28;;;;;;;29.00;15.30;;;11.70;99.90;;;;;;5027908;28;20037;-81
2022/10/27 05:13:54;;;;;;;34.15;16.83;;;11.60;99.90;;;;;;5028219;28;20037;-77
2022/10/27 05:16:19;;;;;;;38.55;15.75;;;11.70;99.90;;;;;;5046678;28;20029;-79
2022/10/27 05:18:45;;;;;;;48.60;16.98;;;11.80;99.90;;;;;;5052917;28;20033;-82
2022/10/27 05:21:10;;;;;;;39.00;16.48;;;11.80;99.90;;;;;;5068892;28;20364;-78
2022/10/27 05:23:36;;;;;;;36.60;16.88;;;11.80;99.90;;;;;;5063986;28;20051;-78
2022/10/27 05:26:02;;;;;;;32.58;16.02;;;11.80;99.90;;;;;;5082880;28;20033;-79
2022/10/27 05:28:27;;;;;;;35.00;17.60;;;11.70;99.90;;;;;;5027164;28;20110;-80
2022/10/27 05:30:57;;;;;;;35.50;17.27;;;11.90;99.90;;;;;;5024884;28;20058;-82
2022/10/27 05:33:24;;;;;;;43.13;17.40;;;11.90;99.90;;;;;;5059979;28;20029;-80
2022/10/27 05:35:49;;;;;;;31.30;17.00;;;11.90;99.90;;;;;;5029362;28;20391;-78
2022/10/27 05:38:16;;;;;;;30.33;16.08;;;11.90;99.90;;;;;;5021242;28;20127;-81
2022/10/27 05:40:41;;;;;;;32.90;15.88;;;12.00;99.90;;;;;;5079351;28;20111;-80
2022/10/27 05:43:09;;;;;;;36.67;16.73;;;11.90;99.90;;;;;;5078627;28;20561;-78
2022/10/27 05:45:34;;;;;;;35.55;16.00;;;11.90;99.90;;;;;;5044602;28;20457;-80
2022/10/27 05:48:08;;;;;;;28.92;15.68;;;11.80;99.90;;;;;;5026802;28;20052;-77
2022/10/27 05:50:34;;;;;;;38.92;16.65;;;11.80;99.90;;;;;;5025412;28;20068;-80
2022/10/27 05:53:00;;;;;;;37.22;15.95;;;11.90;99.90;;;;;;5058119;28;20441;-81
2022/10/27 05:55:26;;;;;;;37.15;16.63;;;11.70;99.90;;;;;;5045252;28;20066;-80
2022/10/27 05:58:00;;;;;;;35.75;16.70;;;12.00;99.90;;;;;;5027481;28;20041;-79
2022/10/27 06:00:31;;;;;;;39.70;16.80;;;11.90;99.90;;;;;;5043598;28;20047;-80
2022/10/27 06:03:00;;;;;;;30.08;16.50;;;12.00;99.90;;;;;;5043994;28;20537;-81
2022/10/27 06:05:28;;;;;;;37.40;16.13;;;11.90;99.90;;;;;;5047060;28;20037;-79
2022/10/27 06:07:54;;;;;;;33.72;16.50;;;12.10;99.90;;;;;;5028359;28;20108;-83
2022/10/27 06:10:20;;;;;;;35.17;16.30;;;12.00;99.90;;;;;;5046712;28;20106;-84
2022/10/27 06:12:48;;;;;;;42.67;17.23;;;12.00;99.90;;;;;;5080657;28;20449;-81
2022/10/27 06:15:14;;;;;;;46.17;16.73;;;12.10;99.90;;;;;;5050558;28;20145;-83
2022/10/27 06:17:40;;;;;;;34.17;15.65;;;12.10;99.90;;;;;;5048449;28;20084;-82
2022/10/27 06:20:06;;;;;;;31.38;16.33;;;12.10;99.90;;;;;;5048837;28;20072;-82
2022/10/27 06:22:32;;;;;;;37.95;16.27;;;12.00;99.90;;;;;;5045233;28;20108;-81
2022/10/27 06:24:57;;;;;;;36.55;16.48;;;12.00;99.90;;;;;;5064094;28;20131;-81
2022/10/27 06:27:23;;;;;;;32.08;16.77;;;12.10;99.90;;;;;;5044792;28;20399;-80
2022/10/27 06:33:14;;;;;;;36.40;17.30;;;12.20;99.90;;;;;;5044185;28;20037;-79
2022/10/27 06:35:39;;;;;;;30.10;16.80;;;12.20;99.90;;;;;;5030082;28;20126;-79
2022/10/27 06:38:05;;;;;;;33.47;16.17;;;12.10;99.90;;;;;;5030599;28;20489;-80
2022/10/27 06:40:31;;;;;;;34.70;17.98;;;12.10;99.90;;;;;;5026598;28;20988;-82
2022/10/27 06:42:56;;;;;;;36.70;17.10;;;12.10;99.90;;;;;;5029430;28;20110;-82
2022/10/27 06:45:22;;;;;;;35.67;17.65;;;12.10;99.90;;;;;;5047935;28;20049;-84
2022/10/27 06:47:57;;;;;;;32.83;17.73;;;12.20;99.90;;;;;;5085687;28;20134;-78
2022/10/27 06:50:22;;;;;;;39.78;17.70;;;12.20;99.90;;;;;;5038325;28;20147;-81
2022/10/27 06:52:50;;;;;;;39.80;17.98;;;12.20;99.90;;;;;;5038125;28;20087;-78
2022/10/27 06:55:15;;;;;;;32.70;17.52;;;12.10;99.90;;;;;;5057584;28;20053;-80
2022/10/27 06:57:42;;;;;;;34.17;17.73;;;12.20;99.90;;;;;;5029234;28;20467;-81
2022/10/27 07:00:09;;;;;;;38.60;19.02;;;12.30;99.90;;;;;;5046570;28;20045;-80
2022/10/27 07:02:35;;;;;;;32.53;17.35;;;12.30;99.90;;;;;;5030958;28;20135;-84
2022/10/27 07:05:01;;;;;;;37.20;18.10;;;12.30;99.90;;;;;;5028391;28;20119;-84
2022/10/27 07:07:27;;;;;;;25.95;15.82;;;12.50;99.90;;;;;;5026343;28;20040;-80
2022/10/27 07:09:53;;;;;;;29.63;15.88;;;12.50;99.90;;;;;;5029029;28;20041;-79
2022/10/27 07:12:19;;;;;;;28.58;15.85;;;12.50;99.90;;;;;;5027848;28;20049;-82
2022/10/27 07:14:44;;;;;;;27.27;16.50;;;12.40;99.90;;;;;;5026718;28;20068;-78
2022/10/27 07:17:10;;;;;;;29.27;15.80;;;12.50;99.90;;;;;;5064338;28;20048;-80
2022/10/27 07:19:36;;;;;;;33.25;16.15;;;12.60;99.90;;;;;;5027763;28;20055;-83
2022/10/27 07:22:02;;;;;;;25.30;14.25;;;12.60;99.90;;;;;;5041910;28;20049;-83
2022/10/27 07:24:27;;;;;;;24.88;13.45;;;12.60;99.90;;;;;;5029621;28;20143;-80
2022/10/27 07:26:53;;;;;;;23.60;14.30;;;12.70;99.90;;;;;;5047348;28;20053;-82
2022/10/27 07:29:19;;;;;;;33.42;14.15;;;12.80;99.90;;;;;;5033128;28;20029;-83
2022/10/27 07:31:46;;;;;;;30.77;14.13;;;12.70;99.90;;;;;;5044967;28;20207;-79
2022/10/27 07:34:12;;;;;;;25.80;12.98;;;12.90;99.90;;;;;;5030207;28;20148;-83
2022/10/27 07:36:39;;;;;;;24.83;13.18;;;12.90;99.90;;;;;;5030650;28;20064;-80
2022/10/27 07:39:07;;;;;;;24.00;11.75;;;13.00;99.90;;;;;;5058371;28;20076;-82
2022/10/27 07:41:33;;;;;;;22.50;11.75;;;13.00;99.90;;;;;;5030847;28;20132;-82
2022/10/27 07:43:59;;;;;;;26.88;12.32;;;13.00;99.90;;;;;;5044900;28;20072;-82
2022/10/27 07:46:24;;;;;;;21.75;12.20;;;13.10;99.90;;;;;;5046090;28;20076;-79
2022/10/27 07:48:51;;;;;;;24.90;11.55;;;13.20;99.90;;;;;;5031425;28;20326;-80
2022/10/27 07:51:16;;;;;;;26.10;11.18;;;13.30;99.90;;;;;;5047883;28;20095;-80
2022/10/27 07:53:42;;;;;;;22.63;11.10;;;13.20;99.90;;;;;;5063207;28;20439;-77
2022/10/27 07:56:08;;;;;;;22.33;10.93;;;13.30;99.90;;;;;;5033036;28;20505;-80
2022/10/27 07:58:34;;;;;;;19.98;10.38;;;13.40;99.90;;;;;;5060688;28;20068;-80
2022/10/27 08:01:02;;;;;;;23.25;10.73;;;13.30;99.90;;;;;;5048026;28;20053;-83
2022/10/27 08:03:30;;;;;;;24.90;10.57;;;13.40;99.90;;;;;;5031698;28;20044;-79
2022/10/27 08:06:02;;;;;;;22.38;10.27;;;13.50;99.90;;;;;;5046967;28;20112;-82
2022/10/27 08:08:30;;;;;;;23.33;10.57;;;13.60;99.90;;;;;;5066528;28;20052;-82
2022/10/27 08:10:58;;;;;;;20.70;10.40;;;13.60;99.90;;;;;;5030337;28;20094;-80
2022/10/27 08:13:23;;;;;;;21.48;10.00;;;13.80;99.90;;;;;;5049656;28;20072;-77
2022/10/27 08:16:09;;;;;;;22.30;9.73;;;13.70;99.90;;;;;;5036357;28;20064;-78
2022/10/27 08:18:35;;;;;;;18.23;8.75;;;13.80;99.90;;;;;;5054967;28;20055;-77
2022/10/27 08:21:03;;;;;;;16.83;8.80;;;13.80;99.90;;;;;;5068164;28;20515;-81
2022/10/27 08:23:29;;;;;;;26.02;8.75;;;14.00;99.90;;;;;;5028540;28;20048;-80
2022/10/27 08:25:55;;;;;;;14.48;8.02;;;14.00;99.90;;;;;;5045551;28;20045;-81
2022/10/27 08:28:23;;;;;;;18.27;8.68;;;14.10;99.90;;;;;;5027486;28;20041;-81
2022/10/27 08:30:51;;;;;;;21.27;8.10;;;14.20;99.90;;;;;;5027311;28;20124;-82
2022/10/27 08:33:17;;;;;;;21.42;8.75;;;14.00;99.90;;;;;;5034640;28;20053;-83
2022/10/27 08:35:42;;;;;;;17.80;7.47;;;14.20;99.90;;;;;;5035751;28;20123;-79
2022/10/27 08:38:13;;;;;;;19.50;7.63;;;14.20;99.90;;;;;;5079085;28;20045;-79
2022/10/27 08:41:02;;;;;;;16.58;7.60;;;14.30;99.90;;;;;;5048106;28;20040;-83
2022/10/27 08:43:37;;;;;;;23.08;7.30;;;14.20;99.90;;;;;;5039488;28;20063;-79
2022/10/27 08:46:15;;;;;;;;;;;14.30;99.90;;;;;;5061570;28;20901;-80
2022/10/27 08:48:43;;;;;;;21.67;7.03;;;14.30;99.90;;;;;;5048845;28;19920;-81
2022/10/27 08:51:15;;;;;;;17.00;6.90;;;14.30;99.90;;;;;;5049056;28;20504;-83
2022/10/27 08:53:45;;;;;;;13.60;6.50;;;14.60;99.90;;;;;;5022527;28;20049;-83
2022/10/27 08:56:11;;;;;;;16.23;6.40;;;14.60;99.90;;;;;;5048708;28;20060;-81
2022/10/27 08:58:45;;;;;;;18.00;5.88;;;14.60;99.90;;;;;;5050557;28;20053;-82
2022/10/27 09:01:34;;;;;;;12.87;5.60;;;14.70;99.90;;;;;;5051043;28;20140;-81
2022/10/27 09:04:22;;;;;;;15.63;6.13;;;14.90;99.90;;;;;;4993302;28;20053;-83
2022/10/27 09:07:08;;;;;;;17.30;6.32;;;15.00;99.90;;;;;;4990286;28;20060;-84
2022/10/27 09:09:40;;;;;;;19.80;6.05;;;15.10;99.90;;;;;;4992378;28;20108;-85
2022/10/27 09:12:21;;;;;;;17.65;5.63;;;15.20;99.90;;;;;;4977213;28;20136;-78
2022/10/27 09:15:08;;;;;;;13.48;6.00;;;15.30;99.90;;;;;;4990554;28;20046;-81
2022/10/27 09:17:43;;;;;;;17.63;5.68;;;15.30;99.90;;;;;;4977451;28;20050;-80
2022/10/27 09:20:42;;;;;;;15.00;5.85;;;15.50;99.90;;;;;;4978482;28;20058;-79
2022/10/27 09:23:16;;;;;;;13.90;5.45;;;15.60;99.90;;;;;;4976467;28;20081;-83
2022/10/27 09:25:44;;;;;;;12.65;4.90;;;15.60;99.90;;;;;;4993587;28;20045;-82
2022/10/27 09:28:28;;;;;;;11.18;5.28;;;15.70;99.90;;;;;;4977130;28;20054;-81
2022/10/27 09:30:54;;;;;;;18.25;5.63;;;15.70;99.90;;;;;;4985511;28;20041;-81
2022/10/27 09:33:26;;;;;;;12.65;4.88;;;15.70;99.90;;;;;;4994578;28;20057;-81
2022/10/27 09:35:52;;;;;;;13.10;5.13;;;15.70;99.90;;;;;;4991832;28;20077;-82
2022/10/27 09:38:22;;;;;;;13.27;5.20;;;15.80;99.90;;;;;;4994434;28;20053;-83
2022/10/27 09:40:48;;;;;;;11.40;4.55;;;15.90;99.90;;;;;;5008179;28;20061;-78
2022/10/27 09:43:14;;;;;;;17.42;4.78;;;15.90;99.90;;;;;;5056507;28;20040;-79
2022/10/27 09:45:50;;;;;;;12.23;5.00;;;15.80;99.90;;;;;;5090857;28;20055;-81
2022/10/27 09:48:22;;;;;;;13.13;4.47;;;15.90;99.90;;;;;;5026375;28;20075;-82
2022/10/27 09:50:53;;;;;;;15.55;4.70;;;16.00;99.90;;;;;;5047488;28;20048;-82
2022/10/27 09:53:36;;;;;;;11.43;4.68;;;16.10;99.90;;;;;;5033646;28;20365;-82
2022/10/27 09:56:02;;;;;;;16.08;4.68;;;16.10;99.90;;;;;;5047756;28;20060;-80
2022/10/27 09:58:28;;;;;;;12.70;4.78;;;16.30;99.90;;;;;;5022018;28;20384;-81
2022/10/27 10:00:59;;;;;;;13.52;4.32;;;16.30;99.90;;;;;;5047453;28;20046;-78
2022/10/27 10:03:25;;;;;;;12.30;4.28;;;16.40;99.90;;;;;;5043958;28;20053;-81
2022/10/27 10:05:59;;;;;;;13.48;4.40;;;16.40;99.90;;;;;;5046289;28;20652;-78
2022/10/27 10:08:32;;;;;;;13.95;4.22;;;16.40;99.90;;;;;;5027149;28;20472;-82
2022/10/27 10:11:17;;;;;;;7.97;3.70;;;16.50;99.90;;;;;;5022559;28;20060;-78
2022/10/27 10:13:59;;;;;;;10.15;3.67;;;16.40;99.90;;;;;;5043807;28;20135;-80
2022/10/27 10:16:28;;;;;;;11.55;3.65;;;16.60;99.90;;;;;;5028983;28;20044;-84
2022/10/27 10:19:02;;;;;;;12.07;3.70;;;16.60;99.90;;;;;;5028089;28;20136;-83
2022/10/27 10:22:02;;;;;;;13.85;3.78;;;16.70;99.90;;;;;;5058101;28;20084;-85
2022/10/27 10:24:32;;;;;;;8.77;3.03;;;16.80;99.90;;;;;;5023609;28;20334;-81
2022/10/27 10:27:02;;;;;;;8.65;3.10;;;16.80;99.90;;;;;;5043688;28;20056;-79
2022/10/27 10:29:39;;;;;;;8.90;3.22;;;16.90;99.90;;;;;;5043368;28;20143;-81
2022/10/27 10:32:11;;;;;;;8.57;2.88;;;17.00;99.90;;;;;;5043386;28;20105;-82
2022/10/27 10:34:37;;;;;;;10.90;3.00;;;17.10;99.90;;;;;;5041929;28;20396;-79
2022/10/27 10:37:23;;;;;;;7.75;2.85;;;17.10;99.90;;;;;;5048827;28;20041;-79
2022/10/27 10:39:48;;;;;;;9.85;3.00;;;17.10;99.90;;;;;;5024919;28;20040;-80
2022/10/27 10:42:18;;;;;;;10.38;2.65;;;17.20;99.90;;;;;;5028328;28;20049;-78
2022/10/27 10:44:45;;;;;;;9.43;2.42;;;17.30;99.90;;;;;;5045165;28;20497;-80
2022/10/27 10:47:27;;;;;;;14.10;2.65;;;17.30;99.90;;;;;;5046712;28;20349;-81
2022/10/27 10:50:00;;;;;;;8.43;2.50;;;17.50;99.90;;;;;;5057891;28;20100;-79
2022/10/27 10:52:34;;;;;;;7.72;2.58;;;17.50;99.90;;;;;;5025097;28;20504;-80
2022/10/27 10:55:15;;;;;;;7.85;2.47;;;17.50;99.90;;;;;;5024108;28;20113;-77
2022/10/27 10:57:44;;;;;;;5.22;2.03;;;17.50;99.90;;;;;;5028390;28;20045;-78
2022/10/27 11:00:19;;;;;;;6.00;2.50;;;17.70;99.90;;;;;;5026984;28;20033;-78
2022/10/27 11:03:22;;;;;;;9.05;2.10;;;17.70;99.90;;;;;;5055851;28;20056;-79
2022/10/27 11:06:16;;;;;;;8.32;2.45;;;17.90;99.90;;;;;;5027061;28;20045;-81
2022/10/27 11:08:42;;;;;;;4.75;2.03;;;18.00;99.90;;;;;;5027439;28;20096;-79
2022/10/27 11:11:21;;;;;;;4.40;1.80;;;18.10;99.90;;;;;;5029515;28;20053;-76
2022/10/27 11:13:52;;;;;;;7.72;2.28;;;18.10;99.90;;;;;;5041013;28;20080;-81
2022/10/27 11:16:19;;;;;;;7.28;2.00;;;18.10;99.90;;;;;;5026749;28;20124;-81
2022/10/27 11:18:53;;;;;;;7.38;2.03;;;18.10;99.90;;;;;;5062776;28;20064;-83
2022/10/27 11:21:23;;;;;;;9.75;2.03;;;18.20;99.90;;;;;;5047104;28;20143;-78
2022/10/27 11:23:51;;;;;;;9.02;1.98;;;18.30;99.90;;;;;;5044129;28;20115;-80
2022/10/27 11:26:28;;;;;;;7.13;1.90;;;18.40;99.90;;;;;;5033298;28;21570;-80
2022/10/27 11:29:16;;;;;;;5.75;1.83;;;18.40;99.90;;;;;;5028778;28;20064;-77
2022/10/27 11:32:06;;;;;;;9.48;1.70;;;18.50;99.90;;;;;;5062316;28;20526;-80
2022/10/27 11:34:50;;;;;;;4.82;1.60;;;18.60;99.90;;;;;;5034489;28;20179;-78
2022/10/27 11:37:54;;;;;;;6.07;1.67;;;18.70;99.90;;;;;;5071430;28;20045;-76
2022/10/27 11:41:07;;;;;;;4.30;1.73;;;18.80;99.90;;;;;;5051355;28;20395;-78
2022/10/27 11:43:40;;;;;;;6.28;1.55;;;18.90;99.90;;;;;;5053239;28;20205;-80
2022/10/27 11:46:44;;;;;;;7.93;1.90;;;19.00;99.90;;;;;;5036817;28;20045;-78
2022/10/27 11:49:23;;;;;;;7.30;1.60;;;19.20;99.90;;;;;;4998566;28;20480;-81
2022/10/27 11:51:56;;;;;;;6.18;1.70;;;19.30;99.90;;;;;;5012854;28;20581;-82
2022/10/27 11:54:22;;;;;;;5.97;1.65;;;19.20;99.90;;;;;;5012882;28;20049;-81
2022/10/27 11:57:19;;;;;;;5.05;1.48;;;19.20;99.90;;;;;;4993309;28;20061;-78
2022/10/27 12:00:06;;;;;;;3.70;1.20;;;19.20;99.90;;;;;;4996738;28;20168;-79
2022/10/27 12:02:51;;;;;;;9.23;1.42;;;19.30;99.90;;;;;;5014267;28;20068;-79
2022/10/27 12:05:24;;;;;;;4.30;1.48;;;19.40;99.90;;;;;;4996700;28;20058;-79
2022/10/27 12:07:57;;;;;;;8.18;1.30;;;19.50;99.90;;;;;;5008797;28;20288;-78
2022/10/27 12:10:54;;;;;;;4.85;1.20;;;19.60;99.90;;;;;;5024120;28;20061;-79
2022/10/27 12:13:31;;;;;;;8.88;1.45;;;19.60;99.90;;;;;;5007828;28;20053;-79
2022/10/27 12:16:02;;;;;;;2.55;1.20;;;19.50;99.90;;;;;;4999308;28;20510;-81
2022/10/27 12:18:40;;;;;;;4.13;1.33;;;19.40;99.90;;;;;;4990813;28;20050;-79
2022/10/27 12:21:15;;;;;;;5.25;1.60;;;19.50;99.90;;;;;;5011087;28;20038;-79
2022/10/27 12:24:14;;;;;;;5.35;1.50;;;19.60;99.90;;;;;;5002198;28;20090;-82
2022/10/27 12:26:43;;;;;;;5.05;1.50;;;19.60;99.90;;;;;;5004679;28;20583;-78
2022/10/27 12:29:11;;;;;;;11.93;1.75;;;19.60;99.90;;;;;;5051563;28;20449;-81
2022/10/27 12:31:43;;;;;;;4.20;1.70;;;19.70;99.90;;;;;;5029161;28;20049;-79
2022/10/27 12:34:14;;;;;;;6.13;1.50;;;19.70;99.90;;;;;;5045099;28;20080;-77
2022/10/27 12:37:08;;;;;;;8.68;1.55;;;19.60;99.90;;;;;;5086593;28;20072;-76
2022/10/27 12:39:50;;;;;;;4.90;1.40;;;19.40;99.90;;;;;;5060123;28;20091;-77
2022/10/27 12:42:42;;;;;;;7.20;1.40;;;19.50;99.90;;;;;;5068160;28;21103;-79
2022/10/27 12:45:38;;;;;;;5.93;1.63;;;19.60;99.90;;;;;;5028853;28;20080;-79
2022/10/27 12:48:32;;;;;;;3.42;1.45;;;19.70;99.90;;;;;;5057129;28;20396;-82
2022/10/27 12:51:31;;;;;;;4.35;1.30;;;19.70;99.90;;;;;;5048507;28;20048;-78
2022/10/27 12:54:27;;;;;;;3.70;1.30;;;19.70;99.90;;;;;;5048143;28;20048;-76
2022/10/27 12:57:09;;;;;;;4.30;1.38;;;19.80;99.90;;;;;;5028650;28;20052;-77
2022/10/27 12:59:56;;;;;;;14.32;1.40;;;19.80;99.90;;;;;;5029720;28;20072;-79